< < Back
Terminal Aerodrome Forecast


Current Version              Previous Versions:   1  2  3  4  5  6  7  8  9  

Terminal Aerodrome Forecast

245
FTUS42 KILM 222300
TAFFLO
TAF
KFLO 222323Z 2300/2324 26003KT P6SM FEW060 SCT250
     FM231200 02005KT P6SM FEW020 BKN200
     FM231800 05007KT P6SM SCT050 BKN150=



Latest METAR

139
SAUS70 KWBC 231900 RRC
MTRFLO
METAR KFLO 231853Z VRB06KT 10SM FEW049 FEW060 34/22 A2989 RMK AO2 SLP117
T03440222


USA.gov is the U.S. government's official web portal to all federal, state and local government web resources and services.